createdAt,value
2019-01-05T00:01:00.186Z,78.37
2019-01-05T00:03:46.781Z,85.43
2019-01-05T00:06:33.627Z,80.97
2019-01-05T00:09:20.243Z,78.07
2019-01-05T00:12:06.834Z,72.50
2019-01-05T00:14:53.519Z,67.57
2019-01-05T00:17:40.126Z,68.40
2019-01-05T00:20:26.794Z,77.47
2019-01-05T00:23:13.410Z,66.50
2019-01-05T00:31:48.135Z,67.90
2019-01-05T00:46:10.303Z,72.43
2019-01-05T01:08:18.731Z,71.83
2019-01-05T01:13:39.822Z,74.50
2019-01-05T01:19:33.911Z,66.87
2019-01-05T01:25:28.026Z,63.93
2019-01-05T01:31:22.129Z,64.50
2019-01-05T01:34:08.793Z,75.30
2019-01-05T01:42:43.302Z,67.03
2019-01-05T01:54:24.595Z,61.93
2019-01-05T02:03:12.670Z,64.33
2019-01-05T02:20:46.283Z,79.20
2019-01-05T02:23:52.228Z,67.97
2019-01-05T02:26:58.195Z,71.93
2019-01-05T02:30:04.374Z,74.50
2019-01-05T02:35:46.510Z,67.57
2019-01-05T02:38:34.808Z,68.93
2019-01-05T02:41:41.007Z,67.63
2019-01-05T02:44:46.948Z,59.43
2019-01-05T02:56:34.439Z,57.87
2019-01-05T02:59:40.655Z,51.13
2019-01-05T03:02:46.594Z,58.57
2019-01-05T03:09:00.060Z,53.30
2019-01-05T03:12:06.030Z,51.00
2019-01-05T03:15:11.982Z,44.87
2019-01-05T03:21:11.654Z,39.67
2019-01-05T03:24:17.858Z,41.90
2019-01-05T03:30:32.729Z,41.57
2019-01-05T03:42:20.079Z,40.07
2019-01-05T03:45:26.025Z,32.63
2019-01-05T03:48:31.989Z,38.47
2019-01-05T03:51:37.971Z,35.23
2019-01-05T03:57:51.191Z,42.63
2019-01-05T04:00:57.358Z,37.90
2019-01-05T04:04:03.321Z,38.73
2019-01-05T04:16:04.146Z,36.83
2019-01-05T04:19:10.106Z,37.83
2019-01-05T04:22:16.063Z,34.10
2019-01-05T04:25:22.034Z,34.43
2019-01-05T04:28:28.227Z,35.83
2019-01-05T04:34:28.347Z,32.63
2019-01-05T04:37:34.307Z,28.97
2019-01-05T04:40:40.259Z,22.20
2019-01-05T04:43:46.218Z,27.00
2019-01-05T04:58:28.688Z,27.90
2019-01-05T05:04:28.358Z,24.47
2019-01-05T05:07:34.309Z,26.13
2019-01-05T05:10:40.263Z,30.47
2019-01-05T05:13:46.454Z,27.33
2019-01-05T05:16:52.411Z,26.50
2019-01-05T05:19:58.374Z,27.13
2019-01-05T05:23:04.314Z,28.27
2019-01-05T05:26:10.471Z,25.87
2019-01-05T05:35:18.041Z,28.83
2019-01-05T05:38:24.222Z,26.03
2019-01-05T05:41:30.413Z,27.20
2019-01-05T05:50:38.378Z,26.40
2019-01-05T05:53:44.580Z,27.87
2019-01-05T05:56:50.536Z,24.60
2019-01-05T05:59:56.479Z,27.97
2019-01-05T06:03:02.430Z,25.37
2019-01-05T06:09:15.634Z,23.97
2019-01-05T06:18:23.239Z,26.93
2019-01-05T06:21:29.182Z,23.93
2019-01-05T06:24:35.149Z,26.40
2019-01-05T06:27:23.297Z,30.00
2019-01-05T06:39:13.498Z,32.43
2019-01-05T06:42:19.452Z,37.37
2019-01-05T06:45:25.601Z,36.93
2019-01-05T06:48:31.546Z,38.20
2019-01-05T06:54:31.502Z,35.97
2019-01-05T06:57:37.689Z,34.80
2019-01-05T07:00:43.631Z,43.60
2019-01-05T07:03:49.590Z,42.00
2019-01-05T07:06:55.559Z,32.50
2019-01-05T07:10:01.706Z,35.77
2019-01-05T07:12:40.506Z,35.53
2019-01-05T07:15:46.467Z,35.63
2019-01-05T07:18:52.417Z,33.33
2019-01-05T07:21:58.355Z,30.07
2019-01-05T07:25:04.542Z,28.40
2019-01-05T07:28:10.498Z,33.07
2019-01-05T07:31:16.437Z,34.40
2019-01-05T07:45:57.726Z,33.00
2019-01-05T07:49:03.943Z,27.17
2019-01-05T07:52:09.917Z,23.27
2019-01-05T08:04:11.378Z,15.67
2019-01-05T08:10:11.206Z,12.50
2019-01-05T08:13:17.149Z,12.27
2019-01-05T08:16:23.102Z,14.90
2019-01-05T08:22:36.298Z,9.20
2019-01-05T08:25:42.267Z,10.53
2019-01-05T08:31:42.020Z,15.07
2019-01-05T08:37:41.999Z,12.67
2019-01-05T08:40:47.944Z,14.23
2019-01-05T08:43:53.898Z,13.07
2019-01-05T08:46:59.839Z,9.73
2019-01-05T08:52:59.646Z,11.10
2019-01-05T08:56:05.601Z,11.73
2019-01-05T08:59:11.557Z,14.60
2019-01-05T09:02:17.812Z,14.47
2019-01-05T09:05:23.794Z,11.80
2019-01-05T09:08:29.979Z,11.60
2019-01-05T09:14:30.086Z,22.90
2019-01-05T09:17:36.022Z,22.00
2019-01-05T09:26:30.086Z,16.87
2019-01-05T09:29:36.038Z,16.63
2019-01-05T09:32:42.247Z,17.27
2019-01-05T09:35:48.181Z,12.17
2019-01-05T09:50:28.358Z,12.73
2019-01-05T09:53:34.294Z,16.50
2019-01-05T09:56:40.546Z,15.70
2019-01-05T09:59:46.722Z,13.70
2019-01-05T10:02:52.688Z,16.53
2019-01-05T10:08:37.390Z,13.20
2019-01-05T10:17:48.040Z,10.97
2019-01-05T10:20:53.983Z,10.77
2019-01-05T10:26:53.270Z,9.47
2019-01-05T10:33:06.674Z,9.23
2019-01-05T10:36:12.619Z,10.47
2019-01-05T10:39:18.570Z,13.90
2019-01-05T10:45:32.006Z,8.20
2019-01-05T10:48:37.978Z,9.93
2019-01-05T10:54:51.369Z,7.90
2019-01-05T11:12:38.746Z,5.13
2019-01-05T11:18:38.971Z,8.73
2019-01-05T11:21:44.902Z,7.73
2019-01-05T11:24:50.882Z,6.00
2019-01-05T11:31:04.245Z,11.53
2019-01-05T11:37:17.455Z,9.30
2019-01-05T11:40:23.436Z,10.00
2019-01-05T11:49:17.487Z,8.37
2019-01-05T11:52:23.486Z,8.03
2019-01-05T11:58:23.152Z,7.00
2019-01-05T12:01:29.107Z,8.50
2019-01-05T12:04:35.102Z,9.23
2019-01-05T12:07:41.309Z,7.87
2019-01-05T12:13:41.155Z,10.13
2019-01-05T12:19:54.366Z,11.93
2019-01-05T12:23:00.546Z,7.17
2019-01-05T12:26:06.533Z,9.03
2019-01-05T12:29:12.458Z,8.80
2019-01-05T12:32:18.426Z,8.83
2019-01-05T12:35:24.363Z,11.67
2019-01-05T12:41:24.207Z,11.13
2019-01-05T12:44:30.138Z,10.13
2019-01-05T12:50:29.817Z,10.10
2019-01-05T12:56:29.482Z,10.10
2019-01-05T12:59:35.430Z,8.10
2019-01-05T13:02:41.366Z,9.00
2019-01-05T13:05:47.348Z,11.40
2019-01-05T13:20:42.122Z,13.80
2019-01-05T13:23:48.067Z,13.67
2019-01-05T13:32:40.783Z,11.13
2019-01-05T13:35:46.746Z,15.97
2019-01-05T13:38:52.706Z,14.27
2019-01-05T13:41:58.666Z,12.30
2019-01-05T13:45:04.632Z,11.67
2019-01-05T13:48:10.830Z,11.97
2019-01-05T13:51:16.795Z,14.47
2019-01-05T13:54:04.914Z,14.27
2019-01-05T13:56:53.059Z,11.40
2019-01-05T14:05:05.238Z,11.63
2019-01-05T14:10:39.961Z,11.67
2019-01-05T14:13:26.590Z,14.50
2019-01-05T14:16:13.208Z,13.60
2019-01-05T14:19:00.050Z,10.83
2019-01-05T14:24:34.769Z,10.90
2019-01-05T14:27:21.378Z,13.20
2019-01-05T14:33:09.462Z,11.20
2019-01-05T14:35:56.049Z,9.60
2019-01-05T14:38:42.911Z,13.30
2019-01-05T14:41:29.522Z,14.13
2019-01-05T14:47:04.202Z,9.20
2019-01-05T14:52:25.131Z,8.80
2019-01-05T14:55:11.750Z,12.20
2019-01-05T14:57:58.338Z,11.93
2019-01-05T15:00:44.962Z,9.90
2019-01-05T15:03:31.551Z,12.00
2019-01-05T15:06:18.149Z,12.30
2019-01-05T15:09:04.746Z,14.93
2019-01-05T15:11:51.366Z,13.10
2019-01-05T15:17:26.041Z,13.13
2019-01-05T15:23:00.835Z,13.97
2019-01-05T15:25:47.446Z,20.83
2019-01-05T15:28:34.068Z,14.20
2019-01-05T15:33:54.881Z,11.33
2019-01-05T15:36:41.462Z,11.37
2019-01-05T15:42:06.610Z,13.20
2019-01-05T15:44:53.206Z,10.47
2019-01-05T15:47:39.827Z,10.83
2019-01-05T15:50:26.496Z,13.90
2019-01-05T15:53:13.086Z,13.60
2019-01-05T15:55:59.949Z,17.53
2019-01-05T15:58:46.790Z,13.47
2019-01-05T16:01:33.650Z,16.93
2019-01-05T16:04:27.050Z,12.27
2019-01-05T16:07:08.846Z,19.07
2019-01-05T16:09:55.482Z,19.87
2019-01-05T16:12:42.099Z,19.43
2019-01-05T16:15:28.731Z,17.77
2019-01-05T16:18:15.318Z,13.03
2019-01-05T16:23:40.571Z,15.83
2019-01-05T16:26:27.182Z,15.93
2019-01-05T16:29:14.687Z,15.40
2019-01-05T16:32:01.381Z,16.10
2019-01-05T16:34:47.983Z,18.33
2019-01-05T16:37:34.598Z,19.60
2019-01-05T16:40:21.199Z,14.77
2019-01-05T16:45:42.406Z,16.10
2019-01-05T16:48:28.999Z,17.27
2019-01-05T16:51:15.621Z,16.83
2019-01-05T16:54:02.214Z,14.20
2019-01-05T16:56:49.066Z,13.60
2019-01-05T16:59:35.910Z,17.43
2019-01-05T17:02:22.509Z,14.57
2019-01-05T17:05:09.358Z,14.27
2019-01-05T17:07:56.214Z,14.17
2019-01-05T17:10:43.047Z,16.57
2019-01-05T17:13:29.643Z,19.53
2019-01-05T17:16:16.249Z,17.50
2019-01-05T17:19:02.871Z,18.17
2019-01-05T17:27:16.062Z,19.93
2019-01-05T17:30:02.670Z,18.57
2019-01-05T17:32:49.534Z,19.47
2019-01-05T17:35:36.145Z,18.43
2019-01-05T17:38:22.757Z,17.80
2019-01-05T17:41:09.368Z,16.70
2019-01-05T17:43:55.955Z,20.63
2019-01-05T17:46:42.561Z,16.87
2019-01-05T17:49:29.177Z,14.50
2019-01-05T17:52:15.801Z,12.97
2019-01-05T17:55:02.683Z,17.30
2019-01-05T17:57:49.315Z,24.33
2019-01-05T18:00:36.180Z,15.63
2019-01-05T18:06:10.855Z,17.57
2019-01-05T18:08:57.536Z,18.33
2019-01-05T18:14:32.228Z,14.90
2019-01-05T18:17:18.874Z,15.87
2019-01-05T18:28:10.919Z,18.83
2019-01-05T18:33:45.847Z,15.07
2019-01-05T18:36:32.466Z,15.03
2019-01-05T18:39:19.077Z,13.77
2019-01-05T18:52:45.004Z,16.63
2019-01-05T18:55:31.610Z,20.83
2019-01-05T18:58:18.219Z,15.67
2019-01-05T19:03:43.556Z,13.97
2019-01-05T19:09:08.719Z,17.00
2019-01-05T19:11:55.314Z,17.20
2019-01-05T19:14:41.897Z,17.73
2019-01-05T19:17:28.753Z,14.63
2019-01-05T19:20:15.349Z,21.73
2019-01-05T19:23:02.220Z,19.87
2019-01-05T19:28:37.440Z,16.77
2019-01-05T19:33:58.714Z,21.17
2019-01-05T19:36:45.553Z,17.27
2019-01-05T19:39:32.402Z,16.63
2019-01-05T19:42:18.995Z,18.10
2019-01-05T19:47:44.266Z,23.73
2019-01-05T19:50:30.863Z,22.37
2019-01-05T19:53:17.475Z,20.67
2019-01-05T20:01:26.470Z,19.10
2019-01-05T20:04:13.059Z,21.93
2019-01-05T20:06:59.674Z,17.10
2019-01-05T20:09:46.275Z,21.50
2019-01-05T20:12:32.902Z,21.17
2019-01-05T20:15:19.491Z,20.47
2019-01-05T20:18:06.350Z,17.20
2019-01-05T20:20:52.946Z,17.50
2019-01-05T20:23:39.566Z,17.53
2019-01-05T20:26:26.417Z,20.90
2019-01-05T20:29:13.022Z,24.97
2019-01-05T20:31:59.638Z,18.47
2019-01-05T20:34:46.465Z,20.20
2019-01-05T20:37:33.325Z,19.87
2019-01-05T20:40:19.936Z,21.73
2019-01-05T20:48:19.313Z,23.43
2019-01-05T20:51:05.952Z,19.77
2019-01-05T20:53:52.549Z,23.97
2019-01-05T20:56:39.179Z,23.63
2019-01-05T20:59:25.793Z,22.70
2019-01-05T21:02:12.390Z,24.50
2019-01-05T21:04:59.012Z,21.23
2019-01-05T21:13:18.117Z,24.23
2019-01-05T21:16:04.950Z,25.57
2019-01-05T21:18:51.588Z,24.33
2019-01-05T21:21:38.422Z,24.20
2019-01-05T21:24:25.046Z,23.97
2019-01-05T21:35:31.590Z,23.90
2019-01-05T21:38:18.187Z,25.13
2019-01-05T21:41:04.802Z,21.80
2019-01-05T21:46:29.911Z,23.30
2019-01-05T21:49:16.738Z,22.40
2019-01-05T21:52:03.362Z,24.53
2019-01-05T21:54:49.963Z,23.70
2019-01-05T21:57:36.579Z,20.43
2019-01-05T22:03:16.682Z,18.50
2019-01-05T22:08:41.734Z,22.17
2019-01-05T22:11:28.562Z,20.57
2019-01-05T22:14:15.419Z,21.50
2019-01-05T22:17:02.015Z,22.23
2019-01-05T22:19:48.862Z,18.43
2019-01-05T22:22:35.491Z,16.87
2019-01-05T22:25:22.105Z,20.00
2019-01-05T22:28:08.727Z,18.53
2019-01-05T22:33:33.893Z,16.67
2019-01-05T22:36:20.597Z,13.93
2019-01-05T22:39:07.235Z,16.97
2019-01-05T22:44:28.754Z,14.70
2019-01-05T22:50:03.502Z,15.13
2019-01-05T22:52:50.110Z,15.93
2019-01-05T22:55:36.982Z,12.50
2019-01-05T22:58:23.597Z,13.60
2019-01-05T23:03:44.674Z,16.00
2019-01-05T23:11:57.758Z,16.53
2019-01-05T23:14:44.374Z,11.33
2019-01-05T23:17:31.000Z,10.03
2019-01-05T23:20:17.842Z,9.73
2019-01-05T23:25:39.187Z,12.57
2019-01-05T23:28:25.923Z,8.83
2019-01-05T23:33:51.014Z,9.40
2019-01-05T23:39:16.390Z,12.87
2019-01-05T23:42:03.042Z,7.60
2019-01-05T23:44:49.886Z,8.20
2019-01-05T23:47:36.479Z,6.30
2019-01-05T23:50:24.638Z,8.57
2019-01-05T23:55:59.553Z,12.30
2019-01-05T23:58:46.407Z,17.27
